Time;durP1;ratioP1;P1;durP2;ratioP2;P2;SDS_P1;SDS_P2;PMS_P1;PMS_P2;Temp;Humidity;BMP_temperature;BMP_pressure;BME280_temperature;BME280_humidity;BME280_pressure;Samples;Min_cycle;Max_cycle;Signal;HPM_P1;HPM_P2
2022/05/12 00:00:20;;;;;;;7.40;2.45;;;;;;;17.19;61.86;99755.00;4995889;28;20056;-69
2022/05/12 00:03:06;;;;;;;5.80;2.20;;;;;;;17.18;62.09;99761.13;4994799;28;20066;-69
2022/05/12 00:05:50;;;;;;;6.53;2.10;;;;;;;17.20;61.97;99769.84;4994831;28;20113;-69
2022/05/12 00:08:35;;;;;;;9.38;2.55;;;;;;;17.17;62.18;99772.50;4995429;28;20461;-69
2022/05/12 00:11:19;;;;;;;8.07;2.75;;;;;;;17.15;61.87;99774.28;4995061;28;20046;-69
2022/05/12 00:14:05;;;;;;;6.75;2.63;;;;;;;17.15;62.08;99776.88;4994660;28;20053;-69
2022/05/12 00:16:50;;;;;;;8.90;3.05;;;;;;;17.13;61.87;99776.03;4994780;28;20093;-70
2022/05/12 00:19:36;;;;;;;7.72;2.72;;;;;;;17.12;62.05;99782.16;4995891;28;20053;-69
2022/05/12 00:22:20;;;;;;;6.03;2.75;;;;;;;17.10;62.18;99786.56;4994538;28;20121;-69
2022/05/12 00:25:14;;;;;;;6.10;2.55;;;;;;;17.09;61.86;99783.09;4995605;28;20097;-69
2022/05/12 00:27:58;;;;;;;5.65;2.20;;;;;;;17.10;61.97;99795.28;4993974;28;20532;-69
2022/05/12 00:30:44;;;;;;;6.55;3.08;;;;;;;17.10;62.25;99790.06;4995316;28;20092;-69
2022/05/12 00:33:28;;;;;;;14.95;2.80;;;;;;;17.09;61.80;99796.19;4995222;28;20045;-68
2022/05/12 00:36:12;;;;;;;8.45;3.05;;;;;;;17.08;62.16;99802.28;4994118;28;20080;-70
2022/05/12 00:38:56;;;;;;;10.32;2.72;;;;;;;17.09;62.15;99809.25;4995222;28;20053;-69
2022/05/12 00:41:41;;;;;;;7.95;2.67;;;;;;;17.08;62.23;99798.78;4995563;28;20105;-70
2022/05/12 00:44:25;;;;;;;7.63;2.97;;;;;;;17.05;62.30;99794.47;4993737;28;20112;-69
2022/05/12 00:47:09;;;;;;;23.10;3.22;;;;;;;17.05;62.53;99804.94;4994293;28;20110;-70
2022/05/12 00:49:54;;;;;;;7.47;2.45;;;;;;;17.04;62.29;99804.09;4994040;28;20560;-69
2022/05/12 00:52:40;;;;;;;6.82;2.75;;;;;;;17.04;62.45;99811.06;4994421;28;20409;-69
2022/05/12 00:55:30;;;;;;;6.80;2.97;;;;;;;17.03;62.39;99817.19;4993399;28;20100;-69
2022/05/12 00:58:19;;;;;;;7.40;2.40;;;;;;;17.00;62.67;99812.88;4995038;28;20097;-69
2022/05/12 01:01:06;;;;;;;8.30;2.47;;;;;;;17.02;62.39;99832.06;4995200;28;20516;-69
2022/05/12 01:03:52;;;;;;;9.45;3.47;;;;;;;17.01;62.42;99834.66;4994375;28;20113;-69
2022/05/12 01:06:39;;;;;;;10.15;3.08;;;;;;;17.00;62.57;99839.06;4994143;28;20108;-69
2022/05/12 01:09:25;;;;;;;11.75;2.42;;;;;;;16.99;62.45;99836.44;4993867;28;20130;-69
2022/05/12 01:12:10;;;;;;;6.07;2.55;;;;;;;16.98;62.49;99846.06;4993892;28;20054;-69
2022/05/12 01:14:55;;;;;;;8.77;3.10;;;;;;;16.97;62.43;99846.94;4993652;28;20132;-69
2022/05/12 01:17:39;;;;;;;6.93;2.47;;;;;;;16.98;62.36;99850.41;4994244;28;20077;-69
2022/05/12 01:20:23;;;;;;;8.00;3.13;;;;;;;16.96;62.44;99847.81;4994191;28;20080;-69
2022/05/12 01:23:14;;;;;;;12.45;3.15;;;;;;;16.95;62.57;99853.09;4994019;28;20124;-69
2022/05/12 01:26:01;;;;;;;5.40;2.10;;;;;;;16.95;62.60;99847.88;4994634;28;20201;-69
2022/05/12 01:28:45;;;;;;;7.03;2.83;;;;;;;16.95;62.74;99858.34;4993488;28;20069;-69
2022/05/12 01:31:30;;;;;;;11.00;3.03;;;;;;;16.93;62.64;99863.53;4994536;28;20100;-69
2022/05/12 01:34:14;;;;;;;6.72;2.60;;;;;;;16.94;62.59;99860.03;4992967;28;20077;-69
2022/05/12 01:36:59;;;;;;;6.97;2.67;;;;;;;16.92;62.61;99867.03;4994037;28;20049;-69
2022/05/12 01:39:42;;;;;;;7.60;2.72;;;;;;;16.94;62.56;99864.41;4994232;28;20049;-69
2022/05/12 01:42:27;;;;;;;5.90;2.80;;;;;;;16.95;62.52;99869.66;4993807;28;20085;-69
2022/05/12 01:45:10;;;;;;;10.65;3.20;;;;;;;16.95;62.58;99872.28;4994451;28;20520;-70
2022/05/12 01:47:57;;;;;;;6.30;2.72;;;;;;;16.95;62.63;99874.88;4994148;28;20513;-69
2022/05/12 01:50:43;;;;;;;7.13;2.97;;;;;;;16.97;62.57;99874.88;4993179;28;20109;-68
2022/05/12 01:53:30;;;;;;;12.02;3.38;;;;;;;16.96;62.68;99879.25;4993164;28;20076;-69
2022/05/12 01:56:14;;;;;;;6.72;2.95;;;;;;;16.94;62.61;99887.97;4992838;28;20096;-68
2022/05/12 01:58:58;;;;;;;6.45;2.90;;;;;;;16.95;62.76;99887.97;4994157;28;20049;-68
2022/05/12 02:01:42;;;;;;;8.15;3.25;;;;;;;16.93;62.27;99881.84;4993758;28;20061;-69
2022/05/12 02:04:26;;;;;;;6.75;2.75;;;;;;;16.93;62.71;99886.25;4992872;28;20077;-68
2022/05/12 02:07:10;;;;;;;8.05;2.85;;;;;;;16.95;62.77;99908.06;4997493;28;20053;-69
2022/05/12 02:09:53;;;;;;;7.10;2.70;;;;;;;16.93;62.77;99900.19;4998149;28;20065;-69
2022/05/12 02:12:38;;;;;;;5.15;2.28;;;;;;;16.93;62.64;99905.41;4997993;28;20096;-68
2022/05/12 02:15:22;;;;;;;6.38;3.10;;;;;;;16.94;62.60;99904.53;4997098;28;20410;-69
2022/05/12 02:18:08;;;;;;;4.38;2.10;;;;;;;16.93;62.71;99910.66;4997113;28;20054;-69
2022/05/12 02:20:52;;;;;;;4.20;2.70;;;;;;;16.93;62.68;99902.78;4997059;28;20405;-69
2022/05/12 02:23:36;;;;;;;7.30;3.53;;;;;;;16.92;62.71;99908.91;4997515;28;20108;-69
2022/05/12 02:26:21;;;;;;;8.13;2.72;;;;;;;16.93;62.79;99915.03;4997705;28;20101;-69
2022/05/12 02:29:05;;;;;;;7.47;3.38;;;;;;;16.94;62.68;99916.78;4996686;28;20088;-70
2022/05/12 02:31:51;;;;;;;8.73;3.55;;;;;;;16.93;62.48;99923.75;4996577;28;20069;-69
2022/05/12 02:34:36;;;;;;;9.25;3.13;;;;;;;16.92;62.89;99922.00;4997205;28;20064;-69
2022/05/12 02:37:20;;;;;;;10.23;3.20;;;;;;;16.93;62.71;99922.88;4997074;28;20057;-69
2022/05/12 02:40:04;;;;;;;;;;;;;;;16.91;62.62;99938.59;4997720;28;20096;-69
2022/05/12 02:42:49;;;;;;;6.15;2.53;;;;;;;16.90;62.51;99934.25;4996145;28;20292;-68
2022/05/12 02:45:33;;;;;;;9.10;2.72;;;;;;;16.90;62.68;99942.97;4996793;28;20053;-69
2022/05/12 02:48:18;;;;;;;8.35;3.17;;;;;;;16.92;62.66;99944.72;4997673;28;20048;-69
2022/05/12 02:51:03;;;;;;;5.50;2.70;;;;;;;16.90;62.62;99949.94;4996046;28;20042;-69
2022/05/12 02:53:48;;;;;;;5.28;2.63;;;;;;;16.90;62.75;99947.31;4996057;28;20413;-69
2022/05/12 02:56:32;;;;;;;;;;;;;;;16.88;62.59;99955.22;4996684;28;20529;-68
2022/05/12 02:59:17;;;;;;;5.67;2.70;;;;;;;16.86;62.75;99954.34;4997268;28;19921;-70
2022/05/12 03:02:01;;;;;;;4.20;3.03;;;;;;;16.87;62.66;99952.63;4996028;28;20790;-70
2022/05/12 03:04:45;;;;;;;7.32;3.17;;;;;;;16.86;62.59;99962.22;4997063;28;20089;-69
2022/05/12 03:07:29;;;;;;;5.18;3.28;;;;;;;16.86;62.81;99958.75;4996318;28;20061;-69
2022/05/12 03:10:13;;;;;;;5.25;3.08;;;;;;;16.84;62.58;99963.13;4996583;28;20045;-70
2022/05/12 03:12:57;;;;;;;;;;;;;;;16.82;62.67;99970.97;4996088;28;20057;-69
2022/05/12 03:15:42;;;;;;;9.13;3.42;;;;;;;16.81;62.73;99973.63;4996291;28;19968;-69
2022/05/12 03:18:26;;;;;;;7.45;3.28;;;;;;;16.80;62.80;99972.75;4995866;28;20053;-69
2022/05/12 03:21:10;;;;;;;;;;;;;;;16.78;62.50;99973.63;4997164;28;20054;-69
2022/05/12 03:23:54;;;;;;;6.25;3.00;;;;;;;16.75;62.83;99972.78;4996685;28;19967;-69
2022/05/12 03:26:38;;;;;;;;;;;;;;;16.75;62.49;99970.16;4997411;28;20045;-69
2022/05/12 03:29:22;;;;;;;6.63;2.83;;;;;;;16.74;62.70;99972.81;4995632;28;19921;-69
2022/05/12 03:32:10;;;;;;;;;;;;;;;16.71;62.69;99972.84;4996063;28;20116;-69
2022/05/12 03:34:54;;;;;;;10.32;3.67;;;;;;;16.71;62.71;99988.53;4995452;28;19920;-69
2022/05/12 03:37:39;;;;;;;4.78;3.15;;;;;;;16.71;62.55;99994.66;4996759;28;20073;-69
2022/05/12 03:40:23;;;;;;;7.38;2.92;;;;;;;16.70;62.59;99995.53;4996106;28;20061;-69
2022/05/12 03:43:07;;;;;;;4.75;2.85;;;;;;;16.69;62.63;99996.41;4995330;28;20184;-69
2022/05/12 03:45:51;;;;;;;5.40;2.67;;;;;;;16.68;62.61;99997.28;4995940;28;20528;-69
2022/05/12 03:48:37;;;;;;;5.13;2.55;;;;;;;16.68;62.63;100002.53;4996520;28;20065;-69
2022/05/12 03:51:21;;;;;;;6.35;3.08;;;;;;;16.67;62.79;100011.25;4995245;28;20129;-69
2022/05/12 03:54:07;;;;;;;8.45;4.03;;;;;;;16.67;62.72;100008.66;4996190;28;20077;-69
2022/05/12 03:56:51;;;;;;;6.90;3.08;;;;;;;16.66;62.45;100012.13;4995003;28;20513;-68
2022/05/12 03:59:38;;;;;;;4.80;2.53;;;;;;;16.66;62.50;100011.28;4996003;28;20129;-69
2022/05/12 04:02:22;;;;;;;9.68;3.08;;;;;;;16.65;62.67;100020.03;4995191;28;20080;-69
2022/05/12 04:05:07;;;;;;;6.38;3.63;;;;;;;16.65;62.57;100022.63;4996181;28;20050;-69
2022/05/12 04:07:52;;;;;;;5.68;2.72;;;;;;;16.63;62.55;100032.25;4994706;28;20126;-68
2022/05/12 04:10:36;;;;;;;8.23;3.47;;;;;;;16.63;62.48;100027.00;4995794;28;20101;-69
2022/05/12 04:13:20;;;;;;;;;;;;;;;16.61;62.32;100040.09;4995530;28;20049;-69
2022/05/12 04:16:04;;;;;;;4.63;2.57;;;;;;;16.57;62.53;100041.03;4995890;28;20005;-69
2022/05/12 04:18:49;;;;;;;7.47;2.53;;;;;;;16.57;62.56;100043.63;4994745;28;20579;-68
2022/05/12 04:21:34;;;;;;;8.50;3.42;;;;;;;16.56;62.51;100047.97;4995744;28;20409;-69
2022/05/12 04:24:19;;;;;;;5.43;3.25;;;;;;;16.56;62.46;100047.13;4995095;28;20133;-70
2022/05/12 04:27:04;;;;;;;5.05;3.28;;;;;;;16.56;62.46;100054.97;4994588;28;20049;-69
2022/05/12 04:29:48;;;;;;;5.30;2.92;;;;;;;16.54;62.25;100062.81;4993240;28;20068;-69
2022/05/12 04:32:33;;;;;;;7.38;3.10;;;;;;;16.54;62.35;100061.97;4994701;28;20140;-70
2022/05/12 04:35:19;;;;;;;13.80;3.00;;;;;;;16.51;62.30;100070.69;4995684;28;20136;-69
2022/05/12 04:38:03;;;;;;;6.85;3.10;;;;;;;16.52;62.33;100071.56;4994205;28;20049;-69
2022/05/12 04:40:51;;;;;;;5.45;3.17;;;;;;;16.50;62.35;100073.31;4994798;28;20096;-69
2022/05/12 04:43:35;;;;;;;4.22;2.63;;;;;;;16.48;62.51;100070.75;4994367;28;20445;-69
2022/05/12 04:46:19;;;;;;;;;;;;;;;16.46;62.30;100072.50;4994649;28;20054;-68
2022/05/12 04:49:05;;;;;;;6.22;2.90;;;;;;;16.44;62.47;100075.09;4995465;28;20016;-69
2022/05/12 04:51:51;;;;;;;6.53;3.30;;;;;;;16.44;62.27;100080.34;4994166;28;20120;-69
2022/05/12 04:54:38;;;;;;;6.90;3.00;;;;;;;16.44;62.46;100075.09;4995225;28;20181;-69
2022/05/12 04:57:23;;;;;;;8.27;3.30;;;;;;;16.44;62.58;100089.94;4994000;28;20053;-69
2022/05/12 05:00:13;;;;;;;6.63;2.70;;;;;;;16.43;62.49;100091.66;4994035;28;20478;-69
2022/05/12 05:02:57;;;;;;;7.65;2.97;;;;;;;16.42;62.55;100099.53;4993238;28;20133;-69
2022/05/12 05:05:42;;;;;;;6.78;3.40;;;;;;;16.38;62.72;100103.94;4993702;28;20050;-69
2022/05/12 05:08:25;;;;;;;7.50;3.53;;;;;;;16.37;62.66;100104.81;4994718;28;20058;-69
2022/05/12 05:11:09;;;;;;;5.30;3.05;;;;;;;16.35;62.60;100103.09;4993952;28;20120;-69
2022/05/12 05:13:54;;;;;;;11.90;3.90;;;;;;;16.33;62.75;100099.63;4993530;28;20061;-69
2022/05/12 05:16:38;;;;;;;4.63;3.00;;;;;;;16.30;62.53;100105.72;4993875;28;20053;-69
2022/05/12 05:19:22;;;;;;;6.53;3.70;;;;;;;16.29;62.68;100109.22;4993670;28;20049;-69
2022/05/12 05:22:06;;;;;;;6.43;3.70;;;;;;;16.26;62.62;100117.94;4993446;28;20489;-69
2022/05/12 05:24:55;;;;;;;9.73;4.15;;;;;;;16.26;62.72;100114.47;4994532;28;20093;-69
2022/05/12 05:27:39;;;;;;;10.57;3.92;;;;;;;16.22;62.74;100121.44;4994379;28;20093;-69
2022/05/12 05:30:25;;;;;;;;;;;;;;;16.21;62.81;100129.31;4994069;28;20045;-69
2022/05/12 05:33:10;;;;;;;10.30;4.68;;;;;;;16.18;62.93;100126.72;4993671;28;20016;-69
2022/05/12 05:35:54;;;;;;;8.45;3.95;;;;;;;16.18;62.82;100125.00;4993319;28;20041;-69
2022/05/12 05:38:41;;;;;;;8.20;4.28;;;;;;;16.20;62.91;100135.44;4993939;28;20517;-69
2022/05/12 05:41:25;;;;;;;5.68;3.15;;;;;;;16.19;62.91;100137.19;4992730;28;20048;-69
2022/05/12 05:44:09;;;;;;;7.82;3.88;;;;;;;16.18;62.93;100143.28;4994150;28;20124;-69
2022/05/12 05:46:53;;;;;;;6.93;3.50;;;;;;;16.19;62.95;100147.66;4994119;28;20053;-69
2022/05/12 05:49:38;;;;;;;9.07;4.18;;;;;;;16.18;63.20;100145.91;4994360;28;20137;-69
2022/05/12 05:55:26;;;;;;;10.75;4.68;;;;;;;16.17;63.00;100169.44;4993979;28;20169;-70
2022/05/12 05:58:10;;;;;;;9.95;4.18;;;;;;;16.13;63.15;100171.19;4993659;28;20125;-68
2022/05/12 06:00:55;;;;;;;11.32;4.53;;;;;;;16.11;63.10;100176.44;4993990;28;20092;-69
2022/05/12 06:03:39;;;;;;;11.35;4.10;;;;;;;16.11;63.12;100181.66;4994029;28;20088;-69
2022/05/12 06:06:24;;;;;;;;;;;;;;;16.09;62.92;100193.00;4994709;28;20069;-69
2022/05/12 06:09:08;;;;;;;9.43;4.45;;;;;;;16.06;63.16;100188.66;4992964;28;19925;-69
2022/05/12 06:11:54;;;;;;;9.57;5.15;;;;;;;16.06;63.07;100191.28;4993794;28;20096;-69
2022/05/12 06:14:42;;;;;;;14.02;5.78;;;;;;;16.06;63.27;100193.00;4993589;28;20508;-70
2022/05/12 06:17:26;;;;;;;9.50;5.32;;;;;;;16.04;63.38;100189.56;4993368;28;20073;-69
2022/05/12 06:20:11;;;;;;;12.95;6.03;;;;;;;16.04;63.46;100195.63;4993246;28;20066;-69
2022/05/12 06:22:55;;;;;;;13.70;5.78;;;;;;;16.02;63.68;100194.75;4994198;28;20081;-70
2022/05/12 06:25:40;;;;;;;10.25;5.25;;;;;;;16.01;63.48;100203.47;4992877;28;20073;-70
2022/05/12 06:28:24;;;;;;;10.35;5.13;;;;;;;16.03;63.32;100203.50;4992798;28;20100;-69
2022/05/12 06:31:08;;;;;;;10.35;5.80;;;;;;;16.02;63.33;100213.06;4993373;28;20182;-69
2022/05/12 06:33:53;;;;;;;15.00;5.85;;;;;;;16.00;63.41;100211.34;4992615;28;20141;-69
2022/05/12 06:36:36;;;;;;;;;;;;;;;15.99;63.25;100210.44;4994089;28;20057;-69
2022/05/12 06:39:20;;;;;;;23.15;7.43;;;;;;;15.98;63.53;100208.72;4992991;28;19921;-69
2022/05/12 06:42:06;;;;;;;11.10;5.10;;;;;;;16.02;63.46;100212.22;4994009;28;20126;-69
2022/05/12 06:44:50;;;;;;;14.45;6.82;;;;;;;16.01;63.53;100220.91;4992845;28;20099;-69
2022/05/12 06:47:34;;;;;;;13.52;7.75;;;;;;;16.02;63.42;100220.06;4993515;28;20073;-69
2022/05/12 06:50:21;;;;;;;15.00;7.70;;;;;;;16.02;63.41;100223.50;4993310;28;20050;-69
2022/05/12 06:53:05;;;;;;;17.13;8.60;;;;;;;16.02;63.13;100230.50;4993973;28;20064;-68
2022/05/12 06:55:50;;;;;;;15.90;8.82;;;;;;;16.04;63.76;100231.38;4996679;28;20053;-70
2022/05/12 06:58:37;;;;;;;15.07;7.90;;;;;;;16.04;63.52;100231.38;4996772;28;20425;-69
2022/05/12 07:01:21;;;;;;;15.27;8.38;;;;;;;16.03;63.25;100229.63;4996179;28;20061;-69
2022/05/12 07:04:05;;;;;;;16.85;8.85;;;;;;;16.02;63.44;100235.72;4997174;28;20077;-68
2022/05/12 07:06:49;;;;;;;;;;;;;;;15.99;63.51;100244.44;4996782;28;20088;-69
2022/05/12 07:09:33;;;;;;;13.52;8.27;;;;;;;15.99;63.68;100244.44;4995780;28;19927;-69
2022/05/12 07:12:17;;;;;;;;;;;;;;;15.98;63.63;100242.69;4996448;28;20060;-69
2022/05/12 07:15:04;;;;;;;19.30;9.38;;;;;;;15.99;63.51;100228.75;4996233;28;19940;-69
2022/05/12 07:17:48;;;;;;;15.77;10.13;;;;;;;16.00;63.81;100243.56;4996369;28;20049;-69
2022/05/12 07:26:41;;;;;;;15.43;9.02;;;;;;;16.00;63.63;100251.41;4996386;28;20568;-69
2022/05/12 07:29:27;;;;;;;15.32;9.32;;;;;;;16.01;63.65;100249.69;4996510;28;20097;-68
2022/05/12 07:32:13;;;;;;;15.23;9.68;;;;;;;16.00;63.75;100253.16;4995308;28;20046;-69
2022/05/12 07:34:57;;;;;;;14.27;8.30;;;;;;;15.99;63.85;100254.88;4995564;28;20053;-69
2022/05/12 07:37:41;;;;;;;17.90;8.93;;;;;;;15.97;63.67;100261.84;4996555;28;20057;-69
2022/05/12 07:40:26;;;;;;;13.27;8.52;;;;;;;15.98;63.74;100266.22;4996461;28;20108;-69
2022/05/12 07:43:09;;;;;;;16.35;8.85;;;;;;;15.97;63.58;100265.34;4995763;28;20064;-69
2022/05/12 07:45:54;;;;;;;17.33;9.20;;;;;;;15.97;63.66;100269.69;4996128;28;20054;-69
2022/05/12 07:48:41;;;;;;;;;;;;;;;15.93;63.65;100270.59;4995544;28;20132;-68
2022/05/12 07:53:57;;;;;;;14.43;9.20;;;;;;;15.93;63.59;100271.47;5111562;27;20253;-69
2022/05/12 07:56:41;;;;;;;15.07;9.88;;;;;;;15.94;63.52;100267.13;5110394;28;20055;-69
2022/05/12 07:59:27;;;;;;;17.25;10.43;;;;;;;15.93;63.48;100276.69;5110851;28;20529;-69
2022/05/12 08:02:15;;;;;;;17.30;9.68;;;;;;;15.94;63.49;100273.22;5110345;28;20128;-69
2022/05/12 08:04:59;;;;;;;16.00;10.80;;;;;;;15.95;63.38;100279.31;5111549;28;20562;-68
2022/05/12 08:07:45;;;;;;;20.13;11.25;;;;;;;15.94;63.53;100288.88;5110777;28;20047;-69
2022/05/12 08:10:29;;;;;;;16.42;10.18;;;;;;;15.96;63.59;100281.91;5110116;28;20055;-69
2022/05/12 08:13:17;;;;;;;17.10;9.60;;;;;;;15.98;63.59;100280.16;5110993;28;20050;-68
2022/05/12 08:16:04;;;;;;;17.77;9.80;;;;;;;16.01;63.30;100288.88;5109846;28;20047;-70
2022/05/12 08:18:53;;;;;;;14.75;9.57;;;;;;;16.02;63.46;100283.63;5109921;28;20121;-69
2022/05/12 08:21:37;;;;;;;14.75;9.68;;;;;;;16.05;63.45;100290.59;5110130;28;20450;-69
2022/05/12 08:24:21;;;;;;;15.98;9.52;;;;;;;16.05;63.34;100288.88;5109428;28;20097;-69
2022/05/12 08:27:05;;;;;;;18.55;10.85;;;;;;;16.07;63.31;100289.75;5111021;28;20089;-69
2022/05/12 08:29:52;;;;;;;14.82;10.23;;;;;;;16.05;63.30;100288.88;5109526;28;20055;-68
2022/05/12 08:32:37;;;;;;;14.13;8.80;;;;;;;16.05;63.39;100291.47;5110160;28;20406;-69
2022/05/12 08:35:21;;;;;;;14.75;8.65;;;;;;;16.06;63.25;100288.00;5109658;28;20131;-69
2022/05/12 08:38:06;;;;;;;15.80;10.30;;;;;;;16.07;63.17;100294.97;5110522;28;20135;-70
2022/05/12 08:41:22;;;;;;;14.65;9.55;;;;;;;16.07;63.40;100294.97;5109868;28;20055;-69
2022/05/12 08:44:17;;;;;;;15.05;9.90;;;;;;;16.09;63.29;100288.00;5109755;28;20092;-69
2022/05/12 08:47:04;;;;;;;15.65;10.65;;;;;;;16.10;63.48;100287.13;5109502;28;20051;-69
2022/05/12 08:49:51;;;;;;;20.77;11.05;;;;;;;16.13;63.42;100299.31;5109893;28;20047;-69
2022/05/12 08:52:53;;;;;;;12.23;9.63;;;;;;;16.16;63.45;100295.78;5108919;28;20117;-70
2022/05/12 08:55:43;;;;;;;20.88;10.63;;;;;;;16.18;63.47;100289.72;5109116;28;20043;-69
2022/05/12 08:58:35;;;;;;;11.48;8.15;;;;;;;16.19;63.34;100290.56;5109481;28;20058;-69
2022/05/12 09:01:37;;;;;;;13.75;8.38;;;;;;;16.17;63.01;100295.81;5109267;28;20100;-69
2022/05/12 09:04:37;;;;;;;14.90;8.38;;;;;;;16.17;63.27;100298.44;5101882;28;20055;-69
2022/05/12 09:07:56;;;;;;;14.82;9.23;;;;;;;16.19;63.07;100298.41;5095515;28;20173;-69
2022/05/12 09:11:09;;;;;;;11.50;8.18;;;;;;;16.18;63.18;100296.66;5096933;28;20038;-69
2022/05/12 09:13:55;;;;;;;13.02;8.85;;;;;;;16.21;63.23;100301.91;5084832;28;20105;-70
2022/05/12 09:16:39;;;;;;;13.27;7.28;;;;;;;16.19;63.12;100291.44;5095517;28;20047;-70
2022/05/12 09:19:26;;;;;;;10.52;6.72;;;;;;;16.19;63.05;100288.84;5096322;28;20131;-69
2022/05/12 09:22:10;;;;;;;9.45;7.22;;;;;;;16.24;63.14;100296.66;5095638;28;20128;-69
2022/05/12 09:24:54;;;;;;;11.93;6.63;;;;;;;16.23;62.79;100289.69;5095685;28;20051;-69
2022/05/12 09:27:44;;;;;;;9.00;7.32;;;;;;;16.26;62.92;100293.16;5095862;28;20157;-69
2022/05/12 09:30:36;;;;;;;13.88;6.43;;;;;;;16.22;62.75;100296.66;5095371;28;20105;-70
2022/05/12 09:33:34;;;;;;;11.43;6.35;;;;;;;16.26;62.58;100289.69;5095416;28;20530;-69
2022/05/12 09:36:21;;;;;;;9.25;6.13;;;;;;;16.28;62.84;100296.63;5095657;28;20419;-69
2022/05/12 09:39:05;;;;;;;11.60;6.10;;;;;;;16.31;63.01;100298.38;5095727;28;20039;-69
2022/05/12 09:41:50;;;;;;;9.25;5.00;;;;;;;16.34;62.69;100287.03;5094568;28;20063;-69
2022/05/12 09:44:37;;;;;;;7.22;5.03;;;;;;;16.33;62.73;100294.00;5095615;28;20403;-69
2022/05/12 09:47:27;;;;;;;10.23;5.30;;;;;;;16.35;62.61;100299.25;5094842;28;20051;-69
2022/05/12 09:50:26;;;;;;;9.30;5.07;;;;;;;16.33;62.48;100298.38;5094362;28;20050;-69
2022/05/12 09:53:13;;;;;;;6.47;4.45;;;;;;;16.33;62.77;100291.38;5093984;28;20141;-69
2022/05/12 09:56:11;;;;;;;6.55;4.60;;;;;;;16.32;62.57;100288.78;5094836;28;20050;-69
2022/05/12 09:59:23;;;;;;;6.95;5.05;;;;;;;16.30;62.31;100291.38;5095598;28;20120;-69
2022/05/12 10:08:39;;;;;;;7.75;5.32;;;;;;;16.31;62.32;100277.44;5094848;28;20525;-69
2022/05/12 10:11:26;;;;;;;6.13;4.30;;;;;;;16.32;62.38;100273.94;5094790;28;20054;-68
2022/05/12 10:14:31;;;;;;;6.25;3.63;;;;;;;16.34;62.00;100260.88;5094928;28;20051;-69
2022/05/12 10:17:37;;;;;;;9.52;4.28;;;;;;;16.35;62.04;100267.84;5094665;28;20050;-69
2022/05/12 10:20:28;;;;;;;7.30;3.88;;;;;;;16.36;62.08;100274.81;5094762;28;20054;-69
2022/05/12 10:23:21;;;;;;;7.03;4.25;;;;;;;16.37;61.96;100274.81;5093860;28;20047;-69
2022/05/12 10:26:22;;;;;;;5.55;3.88;;;;;;;16.40;62.16;100272.19;5094605;28;20104;-69
2022/05/12 10:29:39;;;;;;;8.02;3.60;;;;;;;16.43;61.94;100281.75;5094739;28;20132;-69
2022/05/12 10:33:01;;;;;;;6.15;3.60;;;;;;;16.43;61.64;100277.38;5093794;28;20403;-69
2022/05/12 10:35:57;;;;;;;6.07;3.83;;;;;;;16.44;61.95;100273.03;5094078;28;20054;-69
2022/05/12 10:39:23;;;;;;;5.15;3.42;;;;;;;16.46;61.70;100271.28;5093912;28;20118;-69
2022/05/12 10:42:25;;;;;;;6.60;3.55;;;;;;;16.47;61.77;100270.41;5094459;28;20050;-69
2022/05/12 10:45:28;;;;;;;7.72;3.47;;;;;;;16.50;61.81;100272.13;5093916;28;20186;-69
2022/05/12 10:48:28;;;;;;;7.05;4.50;;;;;;;16.51;61.72;100271.25;5094388;28;20051;-69
2022/05/12 10:51:33;;;;;;;7.68;3.42;;;;;;;16.54;61.80;100273.88;5093557;28;20098;-70
2022/05/12 10:54:59;;;;;;;8.98;3.22;;;;;;;16.53;61.29;100272.13;5093362;28;20051;-69
2022/05/12 10:58:19;;;;;;;5.97;3.85;;;;;;;16.54;61.23;100263.41;5093650;28;20094;-69
2022/05/12 11:01:26;;;;;;;5.57;3.22;;;;;;;16.53;61.41;100261.66;5094566;28;20058;-69
2022/05/12 11:04:27;;;;;;;7.00;3.40;;;;;;;16.55;61.08;100276.47;5093502;28;20046;-69
2022/05/12 11:07:21;;;;;;;5.63;2.67;;;;;;;16.56;61.10;100265.13;5094202;28;20131;-69
2022/05/12 11:10:18;;;;;;;6.00;2.65;;;;;;;16.56;61.16;100252.03;5092945;28;20046;-69
2022/05/12 11:13:10;;;;;;;6.43;3.10;;;;;;;16.58;61.16;100258.13;5093774;28;20449;-69
2022/05/12 11:16:11;;;;;;;5.38;3.17;;;;;;;16.58;61.13;100258.13;5093825;28;20511;-69
2022/05/12 11:19:05;;;;;;;8.55;3.45;;;;;;;16.57;60.99;100252.94;5093895;28;20087;-69
2022/05/12 11:22:11;;;;;;;7.10;2.75;;;;;;;16.58;60.86;100252.06;5092600;28;20066;-69
2022/05/12 11:24:58;;;;;;;4.45;2.67;;;;;;;16.57;60.85;100255.53;5093037;28;20407;-70
2022/05/12 11:29:41;;;;;;;3.72;2.33;;;;;;;16.58;60.86;100257.28;5092325;28;20059;-69
2022/05/12 11:31:14;;;;;;;4.40;2.40;;;;;;;16.58;60.78;100252.06;5093543;28;20092;-69
2022/05/12 11:34:04;;;;;;;4.80;2.85;;;;;;;16.62;60.90;100253.75;5092421;28;20051;-70
2022/05/12 11:36:55;;;;;;;3.20;2.55;;;;;;;16.63;60.77;100252.88;5092497;28;20097;-70
2022/05/12 11:39:39;;;;;;;4.35;2.40;;;;;;;16.63;60.99;100247.66;5093495;28;20097;-69
2022/05/12 11:45:42;;;;;;;3.63;2.40;;;;;;;16.59;60.77;100238.94;5085279;28;20601;-69
2022/05/12 11:48:52;;;;;;;5.78;2.85;;;;;;;16.62;60.61;100250.28;5093645;28;20551;-69
2022/05/12 11:52:01;;;;;;;4.65;2.72;;;;;;;16.64;60.55;100238.06;5092068;28;20093;-69
2022/05/12 11:54:57;;;;;;;6.03;3.08;;;;;;;16.64;60.63;100238.91;5093874;28;20097;-69
2022/05/12 11:57:44;;;;;;;7.55;3.45;;;;;;;16.64;60.51;100231.06;5093261;28;20050;-69
2022/05/12 12:00:34;;;;;;;5.75;2.97;;;;;;;16.63;60.34;100229.31;5093048;28;20453;-69
2022/05/12 12:03:22;;;;;;;7.35;2.92;;;;;;;16.64;60.54;100232.81;5093110;28;20469;-69
2022/05/12 12:06:06;;;;;;;7.53;2.80;;;;;;;16.65;60.61;100226.72;5092476;28;20142;-69
2022/05/12 12:08:50;;;;;;;;;;;;;;;16.62;60.54;100232.81;5093654;28;20042;-69
2022/05/12 12:11:43;;;;;;;7.28;3.00;;;;;;;16.61;60.51;100228.47;5093062;28;19923;-69
2022/05/12 12:14:42;;;;;;;4.47;3.20;;;;;;;16.62;60.44;100231.97;5092703;28;20051;-69
2022/05/12 12:17:40;;;;;;;7.22;3.40;;;;;;;16.62;60.36;100245.91;5093271;28;20048;-69
2022/05/12 12:20:31;;;;;;;6.13;3.10;;;;;;;16.64;60.48;100245.91;5091926;28;20479;-69
2022/05/12 12:23:22;;;;;;;6.00;3.03;;;;;;;16.64;60.35;100235.44;5093119;28;20051;-69
2022/05/12 12:26:23;;;;;;;6.15;3.28;;;;;;;16.64;60.41;100236.31;5092781;28;20087;-69
2022/05/12 12:29:12;;;;;;;4.18;2.50;;;;;;;16.63;60.46;100221.47;5093501;28;20510;-69
2022/05/12 12:32:25;;;;;;;9.38;3.42;;;;;;;16.64;60.46;100223.22;5092094;28;20047;-69
2022/05/12 12:35:29;;;;;;;7.85;3.17;;;;;;;16.66;60.38;100220.63;5091781;28;20478;-69
2022/05/12 12:38:46;;;;;;;8.07;3.67;;;;;;;16.68;60.29;100217.09;5092468;28;20101;-69
2022/05/12 12:41:38;;;;;;;6.10;2.90;;;;;;;16.70;60.29;100217.06;5097181;28;20412;-70
2022/05/12 12:44:26;;;;;;;6.68;3.40;;;;;;;16.70;60.22;100212.72;5096080;28;20046;-70
2022/05/12 12:47:35;;;;;;;5.47;3.33;;;;;;;16.70;60.25;100215.34;5095996;28;20039;-70
2022/05/12 12:50:46;;;;;;;10.93;3.28;;;;;;;16.69;60.37;100213.59;5096948;28;20105;-69
2022/05/12 12:56:41;;;;;;;7.78;3.13;;;;;;;16.69;60.36;100210.09;5096533;28;20043;-69
2022/05/12 12:59:25;;;;;;;5.78;3.13;;;;;;;16.69;60.36;100207.47;5095815;28;20502;-69
2022/05/12 13:02:27;;;;;;;5.13;2.40;;;;;;;16.68;60.16;100203.13;5095961;28;20427;-69
2022/05/12 13:05:19;;;;;;;11.25;3.15;;;;;;;16.68;60.29;100206.63;5096712;28;20042;-70
2022/05/12 13:08:11;;;;;;;6.15;3.25;;;;;;;16.68;60.28;100195.28;5095684;28;20077;-69
2022/05/12 13:11:00;;;;;;;8.15;2.67;;;;;;;16.68;60.32;100209.25;5096643;28;20051;-69
2022/05/12 13:13:53;;;;;;;4.95;2.60;;;;;;;16.69;60.15;100202.25;5096021;28;20043;-69
2022/05/12 13:16:45;;;;;;;5.22;2.83;;;;;;;16.70;60.05;100201.38;5095528;28;20050;-70
2022/05/12 13:19:38;;;;;;;5.90;3.25;;;;;;;16.69;60.29;100205.75;5096022;28;20541;-69
2022/05/12 13:22:48;;;;;;;4.75;2.85;;;;;;;16.70;59.96;100207.50;5095462;28;20143;-69
2022/05/12 13:25:39;;;;;;;8.45;3.35;;;;;;;16.69;59.84;100194.41;5095215;28;20094;-69
2022/05/12 13:28:29;;;;;;;5.18;2.70;;;;;;;16.70;60.14;100199.63;5096019;28;20094;-70
2022/05/12 13:31:24;;;;;;;4.45;2.65;;;;;;;16.70;60.21;100190.91;5096261;28;20100;-69
2022/05/12 13:34:07;;;;;;;;;;;;;;;16.69;60.24;100200.53;5095720;28;20074;-68